• Join FlightAware (Why Join?)
  • Login
  • US Flag 
10:55PM EDT


 

Airport Tracker/Info


-or-


 

Live Flight TrackerFlight Track Log ✈ EJA643 ✈ 12-Jun-2013 ✈ KGSO - KHPN

Flight Track Log - Related Links

Times and Time Zones

All times are in EDT time to prevent confusion due to time zone crossing. See the EJA643 flight status page for this flight to view local times or setup timezone preferences in your user account.

Time Position Orientation Groundspeed Altitude Reporting Facility
EDT Latitude Longitude Course Direction KTS MPH feet Rate Location/Type
04:00PM 36.0481 -79.8206 58° Northeast 286 329 41,000  Level Washington Center
04:01PM 36.1028 -79.7489 47° Northeast 286 329 9,700 -14,520 Descending Washington Center
04:02PM 36.1594 -79.6747 47° Northeast 302 348 12,300 2,400 Climbing Washington Center
04:03PM 36.2164 -79.5953 48° Northeast 307 353 14,600 2,400 Climbing Washington Center
04:04PM 36.3632 -79.3886 50° Northeast  Level FlightAware Approximate
04:04PM 36.2756 -79.5133 48° Northeast 307 353 17,100  Level Washington Center
04:05PM 36.4265 -79.2805 58° Northeast  Level FlightAware Approximate
04:05PM 36.3386 -79.4339 45° Northeast 315 362 19,100  Level Washington Center
04:06PM 36.4019 -79.3392 50° Northeast 326 375 21,100 1,740 Climbing Washington Center
04:07PM 36.4617 -79.2361 54° Northeast 347 399 22,700 900 Climbing Washington Center
04:08PM 36.5233 -79.1278 55° Northeast 370 426 23,000 120 Climbing Washington Center
04:09PM 36.5936 -79.0067 54° Northeast 401 461 23,000 180 Level Washington Center
04:10PM 36.6572 -78.8931 55° Northeast 408 470 23,400 780 Climbing Washington Center
04:11PM 36.7144 -78.7842 57° Northeast 408 470 24,600 1,380 Climbing Washington Center
04:13PM 36.8436 -78.5456 56° Northeast 402 463 27,700 1,320 Climbing Washington Center
04:14PM 36.9069 -78.4308 55° Northeast 402 463 28,700 1,380 Climbing Washington Center
04:15PM 36.9656 -78.3267 55° Northeast 402 463 30,500 1,140 Climbing Washington Center
04:16PM 37.0144 -78.2033 64° Northeast 397 457 31,000 240 Climbing Washington Center
04:17PM 37.0486 -78.0614 73° East 402 463 31,000 240 Level Washington Center
04:18PM 37.0808 -77.9114 75° East 416 479 31,500 1,260 Climbing Washington Center
04:19PM 37.1128 -77.7692 74° East 428 493 33,500 1,860 Climbing Washington Center
04:20PM 37.1442 -77.6397 73° East 412 474 35,400 1,380 Climbing Washington Center
04:21PM 37.1714 -77.5103 75° East 390 449 36,400 1,020 Climbing Washington Center
04:22PM 37.2006 -77.3806 74° East 385 443 37,500 1,140 Climbing Washington Center
04:23PM 37.2339 -77.2353 74° East 385 443 38,700 1,080 Climbing Washington Center
04:24PM 37.2628 -77.1003 75° East 394 453 39,700 1,020 Climbing Washington Center
04:25PM 37.2936 -76.9572 75° East 400 460 40,800 600 Climbing Washington Center
04:26PM 37.3222 -76.8192 75° East 410 472 41,000 60 Climbing Washington Center
04:27PM 37.3550 -76.6761 74° East 437 503 41,000  Level Washington Center
04:28PM 37.3875 -76.5303 74° East 437 503 41,000  Level Washington Center
04:29PM 37.4219 -76.3789 74° East 437 503 41,000  Level Washington Center
04:30PM 37.4539 -76.2303 75° East 437 503 41,000  Level Washington Center
04:31PM 37.5358 -76.1078 50° Northeast 400 460 41,000  Level Washington Center
04:32PM 37.6303 -76.0219 36° Northeast 406 467 41,000  Level Washington Center
04:33PM 37.7283 -75.9331 36° Northeast 406 467 41,000  Level Washington Center
04:34PM 37.8100 -75.8519 38° Northeast 414 476 41,000  Level Washington Center
04:35PM 37.9164 -75.7656 33° Northeast 414 476 41,000  Level Washington Center
04:36PM 38.0083 -75.6786 37° Northeast 414 476 41,000  Level Washington Center
04:37PM 38.0875 -75.5997 38° Northeast 408 470 41,000  Level Washington Center
04:38PM 38.1836 -75.5125 35° Northeast 408 470 41,000  Level Washington Center
04:39PM 38.2897 -75.4250 33° Northeast 408 470 41,000  Level Washington Center
04:40PM 38.3667 -75.3456 39° Northeast 408 470 41,000  Level Washington Center
04:41PM 38.4603 -75.2603 35° Northeast 403 464 41,000  Level Washington Center
04:42PM 38.5539 -75.1775 35° Northeast 408 470 41,000  Level Washington Center
04:43PM 38.6494 -75.0947 34° Northeast 408 470 41,000  Level Washington Center
04:44PM 38.7533 -75.0219 29° Northeast 408 470 41,000  Level Washington Center
04:45PM 38.8531 -74.9544 28° Northeast 408 470 41,000 -1,020 Level Washington Center
04:46PM 38.9569 -74.8922 25° Northeast 408 470 39,000 -1,920 Descending Washington Center
04:47PM 39.0547 -74.8297 26° Northeast 402 463 37,200 -1,980 Descending Washington Center
04:48PM 39.1375 -74.7619 32° Northeast 376 433 35,000 -2,340 Descending Washington Center
04:49PM 39.2264 -74.6644 40° Northeast 385 443 32,700 -2,340 Descending Washington Center
04:50PM 39.3175 -74.5694 39° Northeast 404 465 30,400 -2,340 Descending Washington Center
04:52PM 39.5169 -74.3608 39° Northeast 414 476 25,300 -2,040 Descending New York Center
04:53PM 39.6094 -74.2686 38° Northeast 409 471 24,000 -960 Descending New York Center
04:54PM 39.6978 -74.1731 40° Northeast 403 464 23,400 -540 Descending New York Center
04:55PM 39.8169 -74.1572 North 385 443 23,000 -240 Descending New York Center
04:56PM 39.9225 -74.1164 17° North 385 443 23,000 -600 Level New York Center
04:58PM 40.0653 -73.9094 48° Northeast 426 490 21,400 -1,080 Descending Boston Center
04:59PM 40.1394 -73.7972 49° Northeast 407 468 19,900 -1,560 Descending Boston Center
05:00PM 40.2242 -73.6767 47° Northeast 407 468 18,300 -1,500 Descending Boston Center
05:01PM 40.2961 -73.5664 49° Northeast 402 463 17,000 -660 Descending Boston Center
05:02PM 40.3703 -73.4642 46° Northeast 392 451 17,000  Level Boston Center
05:03PM 40.4664 -73.4219 18° North 353 406 17,000 -420 Level Boston Center
05:04PM 40.6000 -73.3667 17° North 356 410 16,100 -840 Descending New York TRACON
05:05PM 40.7000 -73.3333 14° North 313 360 15,100 -600 Descending New York TRACON
05:06PM 40.7667 -73.3167 11° North 301 346 15,000 -540 Descending New York TRACON
05:07PM 40.8333 -73.2167 49° Northeast 326 375 14,100 -1,200 Descending New York TRACON
05:08PM 40.8667 -73.1333 62° Northeast 355 409 12,700 -1,920 Descending New York TRACON
05:09PM 40.9333 -73.0500 43° Northeast 287 330 10,400 -2,100 Descending New York TRACON
05:10PM 40.9833 -73.0833 333° Northwest 243 280 8,400 -2,160 Descending New York TRACON
05:11PM 41.0333 -73.1500 315° West 237 273 6,100 -2,160 Descending New York TRACON
05:12PM 41.0667 -73.2167 304° West 238 274 4,100 -1,080 Descending New York TRACON
05:13PM 41.1167 -73.2833 315° West 239 275 4,000 -60 Descending New York TRACON
05:14PM 41.1500 -73.3500 304° West 247 284 4,000 -360 Level New York TRACON
05:15PM 41.1167 -73.4333 242° Southwest 235 270 3,300 -540 Descending New York TRACON
05:16PM 41.0667 -73.5167 232° Southwest 262 302 3,000 -600 Descending New York TRACON
05:17PM 41.0333 -73.5833 236° Southwest 262 302 2,200 -660 Descending New York TRACON
05:18PM 41.0167 -73.6500 252° West 170 196 1,700 -660 Descending New York TRACON
05:19PM 41.0333 -73.6833 304° West 120 138 900 -840 Descending New York TRACON
05:21PM 41.0667 -73.7000 236° Southwest  Level FlightAware Approximate
05:28PM 41.0669 -73.7076 236° Southwest  Level Estimated
05:29PM 41.0667 -73.7000 236° Southwest  Level FlightAware Approximate